sensor_id;sensor_type;location;lat;lon;timestamp;P1;durP1;ratioP1;P2;durP2;ratioP2
41952;SDS011;63613;28.200;112.870;2023-07-28T00:01:11;16.08;;;7.70;;
41952;SDS011;63613;28.200;112.870;2023-07-28T00:03:38;13.98;;;8.38;;
41952;SDS011;63613;28.200;112.870;2023-07-28T00:06:05;17.10;;;7.72;;
41952;SDS011;63613;28.200;112.870;2023-07-28T00:08:52;11.68;;;7.18;;
41952;SDS011;63613;28.200;112.870;2023-07-28T00:11:19;15.95;;;7.72;;
41952;SDS011;63613;28.200;112.870;2023-07-28T00:13:46;14.80;;;6.65;;
41952;SDS011;63613;28.200;112.870;2023-07-28T00:16:14;14.40;;;7.40;;
41952;SDS011;63613;28.200;112.870;2023-07-28T00:18:41;12.35;;;8.07;;
41952;SDS011;63613;28.200;112.870;2023-07-28T00:21:07;12.02;;;7.55;;
41952;SDS011;63613;28.200;112.870;2023-07-28T00:23:34;13.02;;;6.65;;
41952;SDS011;63613;28.200;112.870;2023-07-28T00:26:01;13.45;;;7.53;;
41952;SDS011;63613;28.200;112.870;2023-07-28T00:28:28;9.88;;;6.28;;
41952;SDS011;63613;28.200;112.870;2023-07-28T00:30:54;10.88;;;7.22;;
41952;SDS011;63613;28.200;112.870;2023-07-28T00:33:41;14.27;;;8.10;;
41952;SDS011;63613;28.200;112.870;2023-07-28T00:36:08;14.07;;;8.57;;
41952;SDS011;63613;28.200;112.870;2023-07-28T00:38:35;14.48;;;7.53;;
41952;SDS011;63613;28.200;112.870;2023-07-28T00:41:02;12.73;;;7.10;;
41952;SDS011;63613;28.200;112.870;2023-07-28T00:43:29;15.20;;;8.18;;
41952;SDS011;63613;28.200;112.870;2023-07-28T00:45:56;15.20;;;8.55;;
41952;SDS011;63613;28.200;112.870;2023-07-28T00:48:23;13.48;;;6.95;;
41952;SDS011;63613;28.200;112.870;2023-07-28T00:50:51;9.23;;;6.40;;
41952;SDS011;63613;28.200;112.870;2023-07-28T00:53:19;12.93;;;7.53;;
41952;SDS011;63613;28.200;112.870;2023-07-28T00:55:50;11.10;;;7.85;;
41952;SDS011;63613;28.200;112.870;2023-07-28T00:58:18;9.88;;;7.03;;
41952;SDS011;63613;28.200;112.870;2023-07-28T01:00:44;11.13;;;6.55;;
41952;SDS011;63613;28.200;112.870;2023-07-28T01:03:31;9.82;;;6.82;;
41952;SDS011;63613;28.200;112.870;2023-07-28T01:11:52;10.95;;;6.45;;
41952;SDS011;63613;28.200;112.870;2023-07-28T01:14:26;10.43;;;6.38;;
41952;SDS011;63613;28.200;112.870;2023-07-28T01:16:52;10.30;;;6.30;;
41952;SDS011;63613;28.200;112.870;2023-07-28T01:19:20;9.50;;;6.53;;
41952;SDS011;63613;28.200;112.870;2023-07-28T01:21:48;11.32;;;7.05;;
41952;SDS011;63613;28.200;112.870;2023-07-28T01:27:04;8.55;;;6.57;;
41952;SDS011;63613;28.200;112.870;2023-07-28T01:29:32;6.47;;;5.88;;
41952;SDS011;63613;28.200;112.870;2023-07-28T01:32:00;9.48;;;6.32;;
41952;SDS011;63613;28.200;112.870;2023-07-28T01:34:29;11.35;;;7.13;;
41952;SDS011;63613;28.200;112.870;2023-07-28T01:36:56;9.23;;;6.40;;
41952;SDS011;63613;28.200;112.870;2023-07-28T01:39:22;8.73;;;6.03;;
41952;SDS011;63613;28.200;112.870;2023-07-28T01:41:49;6.70;;;5.95;;
41952;SDS011;63613;28.200;112.870;2023-07-28T01:44:16;8.23;;;5.82;;
41952;SDS011;63613;28.200;112.870;2023-07-28T01:46:44;9.63;;;6.90;;
41952;SDS011;63613;28.200;112.870;2023-07-28T01:49:11;6.50;;;5.75;;
41952;SDS011;63613;28.200;112.870;2023-07-28T01:51:37;9.02;;;6.63;;
41952;SDS011;63613;28.200;112.870;2023-07-28T01:54:06;8.75;;;6.65;;
41952;SDS011;63613;28.200;112.870;2023-07-28T01:56:33;7.95;;;5.70;;
41952;SDS011;63613;28.200;112.870;2023-07-28T01:59:00;8.10;;;5.70;;
41952;SDS011;63613;28.200;112.870;2023-07-28T02:01:27;8.52;;;5.78;;
41952;SDS011;63613;28.200;112.870;2023-07-28T02:03:53;10.60;;;6.20;;
41952;SDS011;63613;28.200;112.870;2023-07-28T02:06:23;7.30;;;5.90;;
41952;SDS011;63613;28.200;112.870;2023-07-28T02:08:50;7.82;;;6.47;;
41952;SDS011;63613;28.200;112.870;2023-07-28T02:11:17;7.75;;;6.28;;
41952;SDS011;63613;28.200;112.870;2023-07-28T02:13:43;9.50;;;6.82;;
41952;SDS011;63613;28.200;112.870;2023-07-28T02:16:10;9.32;;;6.50;;
41952;SDS011;63613;28.200;112.870;2023-07-28T02:18:37;7.95;;;6.07;;
41952;SDS011;63613;28.200;112.870;2023-07-28T02:21:07;9.10;;;6.15;;
41952;SDS011;63613;28.200;112.870;2023-07-28T02:23:34;7.47;;;6.10;;
41952;SDS011;63613;28.200;112.870;2023-07-28T02:26:01;9.25;;;5.82;;
41952;SDS011;63613;28.200;112.870;2023-07-28T02:28:28;6.15;;;5.55;;
41952;SDS011;63613;28.200;112.870;2023-07-28T02:30:55;6.07;;;5.38;;
41952;SDS011;63613;28.200;112.870;2023-07-28T02:33:24;6.93;;;6.22;;
41952;SDS011;63613;28.200;112.870;2023-07-28T02:35:55;7.38;;;6.10;;
41952;SDS011;63613;28.200;112.870;2023-07-28T02:38:22;8.02;;;6.03;;
41952;SDS011;63613;28.200;112.870;2023-07-28T02:40:49;8.02;;;5.75;;
41952;SDS011;63613;28.200;112.870;2023-07-28T02:43:16;6.68;;;5.32;;
41952;SDS011;63613;28.200;112.870;2023-07-28T02:45:43;7.00;;;5.80;;
41952;SDS011;63613;28.200;112.870;2023-07-28T02:48:14;6.72;;;6.03;;
41952;SDS011;63613;28.200;112.870;2023-07-28T02:51:01;5.82;;;5.18;;
41952;SDS011;63613;28.200;112.870;2023-07-28T02:53:28;6.38;;;5.72;;
41952;SDS011;63613;28.200;112.870;2023-07-28T02:55:56;6.60;;;5.90;;
41952;SDS011;63613;28.200;112.870;2023-07-28T02:58:23;6.25;;;5.22;;
41952;SDS011;63613;28.200;112.870;2023-07-28T03:00:51;5.68;;;5.07;;
41952;SDS011;63613;28.200;112.870;2023-07-28T03:03:18;6.57;;;5.15;;
41952;SDS011;63613;28.200;112.870;2023-07-28T03:05:45;6.75;;;5.22;;
41952;SDS011;63613;28.200;112.870;2023-07-28T03:08:12;6.20;;;5.70;;
41952;SDS011;63613;28.200;112.870;2023-07-28T03:10:39;6.03;;;4.97;;
41952;SDS011;63613;28.200;112.870;2023-07-28T03:13:05;5.60;;;5.10;;
41952;SDS011;63613;28.200;112.870;2023-07-28T03:15:32;5.85;;;5.15;;
41952;SDS011;63613;28.200;112.870;2023-07-28T03:17:59;7.38;;;5.38;;
41952;SDS011;63613;28.200;112.870;2023-07-28T03:20:26;5.72;;;5.10;;
41952;SDS011;63613;28.200;112.870;2023-07-28T03:22:53;6.00;;;4.88;;
41952;SDS011;63613;28.200;112.870;2023-07-28T03:25:20;6.20;;;5.07;;
41952;SDS011;63613;28.200;112.870;2023-07-28T03:27:47;5.47;;;4.97;;
41952;SDS011;63613;28.200;112.870;2023-07-28T03:30:14;5.93;;;5.40;;
41952;SDS011;63613;28.200;112.870;2023-07-28T03:32:41;6.22;;;5.15;;
41952;SDS011;63613;28.200;112.870;2023-07-28T03:35:08;5.32;;;4.85;;
41952;SDS011;63613;28.200;112.870;2023-07-28T03:37:35;6.20;;;5.10;;
41952;SDS011;63613;28.200;112.870;2023-07-28T03:40:21;5.30;;;4.85;;
41952;SDS011;63613;28.200;112.870;2023-07-28T03:42:48;6.40;;;4.95;;
41952;SDS011;63613;28.200;112.870;2023-07-28T03:45:15;5.03;;;4.57;;
41952;SDS011;63613;28.200;112.870;2023-07-28T03:48:02;6.00;;;5.03;;
41952;SDS011;63613;28.200;112.870;2023-07-28T03:50:29;6.05;;;5.45;;
41952;SDS011;63613;28.200;112.870;2023-07-28T03:52:58;6.10;;;5.50;;
41952;SDS011;63613;28.200;112.870;2023-07-28T03:55:25;6.93;;;5.95;;
41952;SDS011;63613;28.200;112.870;2023-07-28T03:57:52;6.55;;;5.60;;
41952;SDS011;63613;28.200;112.870;2023-07-28T04:00:18;7.07;;;6.30;;
41952;SDS011;63613;28.200;112.870;2023-07-28T04:02:45;7.82;;;5.82;;
41952;SDS011;63613;28.200;112.870;2023-07-28T04:05:12;11.00;;;6.95;;
41952;SDS011;63613;28.200;112.870;2023-07-28T04:07:39;8.75;;;6.40;;
41952;SDS011;63613;28.200;112.870;2023-07-28T04:10:06;11.63;;;7.40;;
41952;SDS011;63613;28.200;112.870;2023-07-28T04:12:33;9.75;;;7.65;;
41952;SDS011;63613;28.200;112.870;2023-07-28T04:15:00;11.13;;;8.07;;
41952;SDS011;63613;28.200;112.870;2023-07-28T04:17:27;11.52;;;7.93;;
41952;SDS011;63613;28.200;112.870;2023-07-28T04:19:54;13.48;;;8.50;;
41952;SDS011;63613;28.200;112.870;2023-07-28T04:22:21;12.45;;;8.32;;
41952;SDS011;63613;28.200;112.870;2023-07-28T04:24:48;14.18;;;9.05;;
41952;SDS011;63613;28.200;112.870;2023-07-28T04:27:15;13.73;;;9.82;;
41952;SDS011;63613;28.200;112.870;2023-07-28T04:29:42;13.23;;;9.27;;
41952;SDS011;63613;28.200;112.870;2023-07-28T04:32:09;13.88;;;9.20;;
41952;SDS011;63613;28.200;112.870;2023-07-28T04:34:36;15.52;;;8.85;;
41952;SDS011;63613;28.200;112.870;2023-07-28T04:37:03;16.13;;;9.73;;
41952;SDS011;63613;28.200;112.870;2023-07-28T04:39:30;15.95;;;9.95;;
41952;SDS011;63613;28.200;112.870;2023-07-28T04:41:57;14.00;;;9.00;;
41952;SDS011;63613;28.200;112.870;2023-07-28T04:44:27;11.93;;;9.02;;
41952;SDS011;63613;28.200;112.870;2023-07-28T04:46:56;12.73;;;8.63;;
41952;SDS011;63613;28.200;112.870;2023-07-28T04:49:26;16.73;;;11.07;;
41952;SDS011;63613;28.200;112.870;2023-07-28T04:51:54;16.60;;;10.18;;
41952;SDS011;63613;28.200;112.870;2023-07-28T04:54:21;14.13;;;9.38;;
41952;SDS011;63613;28.200;112.870;2023-07-28T04:56:53;16.45;;;9.23;;
41952;SDS011;63613;28.200;112.870;2023-07-28T04:59:19;14.82;;;9.48;;
41952;SDS011;63613;28.200;112.870;2023-07-28T05:01:46;16.13;;;9.30;;
41952;SDS011;63613;28.200;112.870;2023-07-28T05:04:14;13.73;;;8.98;;
41952;SDS011;63613;28.200;112.870;2023-07-28T05:06:41;14.50;;;9.32;;
41952;SDS011;63613;28.200;112.870;2023-07-28T05:09:08;11.68;;;8.02;;
41952;SDS011;63613;28.200;112.870;2023-07-28T05:11:38;14.00;;;8.25;;
41952;SDS011;63613;28.200;112.870;2023-07-28T05:14:04;10.57;;;8.48;;
41952;SDS011;63613;28.200;112.870;2023-07-28T05:16:34;12.43;;;7.80;;
41952;SDS011;63613;28.200;112.870;2023-07-28T05:19:21;12.30;;;7.95;;
41952;SDS011;63613;28.200;112.870;2023-07-28T05:21:48;12.23;;;7.03;;
41952;SDS011;63613;28.200;112.870;2023-07-28T05:24:14;10.77;;;7.22;;
41952;SDS011;63613;28.200;112.870;2023-07-28T05:27:03;10.05;;;7.05;;
41952;SDS011;63613;28.200;112.870;2023-07-28T05:29:30;10.45;;;6.82;;
41952;SDS011;63613;28.200;112.870;2023-07-28T05:32:00;12.10;;;7.65;;
41952;SDS011;63613;28.200;112.870;2023-07-28T05:34:27;11.10;;;7.43;;
41952;SDS011;63613;28.200;112.870;2023-07-28T05:36:54;10.35;;;7.85;;
41952;SDS011;63613;28.200;112.870;2023-07-28T05:39:21;10.68;;;8.27;;
41952;SDS011;63613;28.200;112.870;2023-07-28T05:41:50;14.05;;;8.93;;
41952;SDS011;63613;28.200;112.870;2023-07-28T05:44:16;11.10;;;7.53;;
41952;SDS011;63613;28.200;112.870;2023-07-28T05:46:43;8.85;;;6.72;;
41952;SDS011;63613;28.200;112.870;2023-07-28T05:49:11;12.45;;;7.50;;
41952;SDS011;63613;28.200;112.870;2023-07-28T05:51:39;9.50;;;6.70;;
41952;SDS011;63613;28.200;112.870;2023-07-28T05:54:06;10.27;;;6.25;;
41952;SDS011;63613;28.200;112.870;2023-07-28T05:56:33;9.40;;;6.68;;
41952;SDS011;63613;28.200;112.870;2023-07-28T05:59:01;9.60;;;6.35;;
41952;SDS011;63613;28.200;112.870;2023-07-28T06:01:28;10.07;;;6.90;;
41952;SDS011;63613;28.200;112.870;2023-07-28T06:03:55;9.35;;;6.57;;
41952;SDS011;63613;28.200;112.870;2023-07-28T06:06:24;9.05;;;6.10;;
41952;SDS011;63613;28.200;112.870;2023-07-28T06:08:52;9.25;;;6.72;;
41952;SDS011;63613;28.200;112.870;2023-07-28T06:11:20;8.38;;;5.97;;
41952;SDS011;63613;28.200;112.870;2023-07-28T06:13:48;7.88;;;5.53;;
41952;SDS011;63613;28.200;112.870;2023-07-28T06:16:15;10.02;;;6.32;;
41952;SDS011;63613;28.200;112.870;2023-07-28T06:18:42;12.15;;;6.05;;
41952;SDS011;63613;28.200;112.870;2023-07-28T06:21:09;8.02;;;5.72;;
41952;SDS011;63613;28.200;112.870;2023-07-28T06:23:35;11.10;;;5.95;;
41952;SDS011;63613;28.200;112.870;2023-07-28T06:26:24;10.18;;;5.60;;
41952;SDS011;63613;28.200;112.870;2023-07-28T06:28:54;9.02;;;4.95;;
41952;SDS011;63613;28.200;112.870;2023-07-28T06:31:21;6.60;;;5.10;;
41952;SDS011;63613;28.200;112.870;2023-07-28T06:33:48;9.50;;;5.72;;
41952;SDS011;63613;28.200;112.870;2023-07-28T06:36:15;14.45;;;6.20;;
41952;SDS011;63613;28.200;112.870;2023-07-28T06:38:43;9.95;;;5.30;;
41952;SDS011;63613;28.200;112.870;2023-07-28T06:41:13;28.02;;;6.47;;
41952;SDS011;63613;28.200;112.870;2023-07-28T06:43:40;8.45;;;4.47;;
41952;SDS011;63613;28.200;112.870;2023-07-28T06:46:08;7.75;;;4.93;;
41952;SDS011;63613;28.200;112.870;2023-07-28T06:48:35;8.80;;;3.90;;
41952;SDS011;63613;28.200;112.870;2023-07-28T06:51:02;8.75;;;4.75;;
41952;SDS011;63613;28.200;112.870;2023-07-28T06:53:29;7.38;;;4.28;;
41952;SDS011;63613;28.200;112.870;2023-07-28T06:55:57;6.55;;;4.28;;
41952;SDS011;63613;28.200;112.870;2023-07-28T06:58:24;6.55;;;4.10;;
41952;SDS011;63613;28.200;112.870;2023-07-28T07:00:51;7.30;;;4.00;;
41952;SDS011;63613;28.200;112.870;2023-07-28T07:03:21;4.70;;;3.88;;
41952;SDS011;63613;28.200;112.870;2023-07-28T07:05:49;6.90;;;3.70;;
41952;SDS011;63613;28.200;112.870;2023-07-28T07:08:18;4.88;;;3.83;;
41952;SDS011;63613;28.200;112.870;2023-07-28T07:10:48;5.72;;;4.00;;
41952;SDS011;63613;28.200;112.870;2023-07-28T07:13:15;6.15;;;3.42;;
41952;SDS011;63613;28.200;112.870;2023-07-28T07:16:05;5.70;;;3.53;;
41952;SDS011;63613;28.200;112.870;2023-07-28T07:18:42;4.07;;;3.17;;
41952;SDS011;63613;28.200;112.870;2023-07-28T07:21:09;4.95;;;3.33;;
41952;SDS011;63613;28.200;112.870;2023-07-28T07:23:37;4.32;;;2.67;;
41952;SDS011;63613;28.200;112.870;2023-07-28T07:26:04;4.30;;;2.92;;
41952;SDS011;63613;28.200;112.870;2023-07-28T07:28:31;3.00;;;2.70;;
41952;SDS011;63613;28.200;112.870;2023-07-28T07:31:00;5.25;;;3.40;;
41952;SDS011;63613;28.200;112.870;2023-07-28T07:33:29;3.95;;;2.55;;
41952;SDS011;63613;28.200;112.870;2023-07-28T07:35:57;3.30;;;2.58;;
41952;SDS011;63613;28.200;112.870;2023-07-28T07:38:26;2.90;;;2.70;;
41952;SDS011;63613;28.200;112.870;2023-07-28T07:40:52;4.78;;;2.70;;
41952;SDS011;63613;28.200;112.870;2023-07-28T07:43:19;4.72;;;2.90;;
41952;SDS011;63613;28.200;112.870;2023-07-28T07:45:49;4.28;;;2.45;;
41952;SDS011;63613;28.200;112.870;2023-07-28T07:48:20;4.47;;;2.67;;
41952;SDS011;63613;28.200;112.870;2023-07-28T07:50:46;3.88;;;2.55;;
41952;SDS011;63613;28.200;112.870;2023-07-28T07:53:18;3.65;;;2.80;;
41952;SDS011;63613;28.200;112.870;2023-07-28T07:55:44;3.42;;;2.58;;
41952;SDS011;63613;28.200;112.870;2023-07-28T07:58:11;3.92;;;2.50;;
41952;SDS011;63613;28.200;112.870;2023-07-28T08:00:40;4.50;;;2.92;;
41952;SDS011;63613;28.200;112.870;2023-07-28T08:03:06;5.60;;;3.03;;
41952;SDS011;63613;28.200;112.870;2023-07-28T08:05:33;3.25;;;2.55;;
41952;SDS011;63613;28.200;112.870;2023-07-28T08:08:02;4.90;;;2.97;;
41952;SDS011;63613;28.200;112.870;2023-07-28T08:10:32;4.03;;;3.00;;
41952;SDS011;63613;28.200;112.870;2023-07-28T08:13:00;3.25;;;2.60;;
41952;SDS011;63613;28.200;112.870;2023-07-28T08:15:29;2.80;;;2.20;;
41952;SDS011;63613;28.200;112.870;2023-07-28T08:17:57;3.35;;;2.83;;
41952;SDS011;63613;28.200;112.870;2023-07-28T08:20:24;4.28;;;2.63;;
41952;SDS011;63613;28.200;112.870;2023-07-28T08:22:55;3.25;;;2.22;;
41952;SDS011;63613;28.200;112.870;2023-07-28T08:25:44;3.63;;;2.53;;
41952;SDS011;63613;28.200;112.870;2023-07-28T08:28:11;2.53;;;2.33;;
41952;SDS011;63613;28.200;112.870;2023-07-28T08:30:38;2.28;;;2.05;;
41952;SDS011;63613;28.200;112.870;2023-07-28T08:33:05;2.58;;;2.03;;
41952;SDS011;63613;28.200;112.870;2023-07-28T08:35:52;2.83;;;2.20;;
41952;SDS011;63613;28.200;112.870;2023-07-28T08:38:19;2.45;;;2.05;;
41952;SDS011;63613;28.200;112.870;2023-07-28T08:40:46;2.70;;;2.45;;
41952;SDS011;63613;28.200;112.870;2023-07-28T08:43:13;2.60;;;2.10;;
41952;SDS011;63613;28.200;112.870;2023-07-28T08:45:40;2.25;;;2.05;;
41952;SDS011;63613;28.200;112.870;2023-07-28T08:48:11;2.50;;;1.80;;
41952;SDS011;63613;28.200;112.870;2023-07-28T08:50:38;2.33;;;2.13;;
41952;SDS011;63613;28.200;112.870;2023-07-28T08:53:05;2.53;;;2.03;;
41952;SDS011;63613;28.200;112.870;2023-07-28T08:55:34;2.30;;;2.10;;
41952;SDS011;63613;28.200;112.870;2023-07-28T09:00:52;2.35;;;2.15;;
41952;SDS011;63613;28.200;112.870;2023-07-28T09:03:20;2.90;;;2.25;;
41952;SDS011;63613;28.200;112.870;2023-07-28T09:05:48;2.30;;;2.03;;
41952;SDS011;63613;28.200;112.870;2023-07-28T09:08:15;2.15;;;1.90;;
41952;SDS011;63613;28.200;112.870;2023-07-28T09:10:46;2.40;;;1.95;;
41952;SDS011;63613;28.200;112.870;2023-07-28T09:13:15;2.38;;;2.05;;
41952;SDS011;63613;28.200;112.870;2023-07-28T09:15:46;2.28;;;2.08;;
41952;SDS011;63613;28.200;112.870;2023-07-28T09:18:15;1.92;;;1.73;;
41952;SDS011;63613;28.200;112.870;2023-07-28T09:20:43;1.95;;;1.80;;
41952;SDS011;63613;28.200;112.870;2023-07-28T09:23:10;2.13;;;1.65;;
41952;SDS011;63613;28.200;112.870;2023-07-28T09:25:41;2.25;;;2.15;;
41952;SDS011;63613;28.200;112.870;2023-07-28T09:28:08;2.13;;;1.92;;
41952;SDS011;63613;28.200;112.870;2023-07-28T09:30:46;3.22;;;1.63;;
41952;SDS011;63613;28.200;112.870;2023-07-28T09:33:28;2.80;;;2.55;;
41952;SDS011;63613;28.200;112.870;2023-07-28T09:36:09;2.20;;;2.00;;
41952;SDS011;63613;28.200;112.870;2023-07-28T09:38:41;3.72;;;2.40;;
41952;SDS011;63613;28.200;112.870;2023-07-28T09:41:09;2.40;;;2.08;;
41952;SDS011;63613;28.200;112.870;2023-07-28T09:43:40;2.40;;;2.20;;
41952;SDS011;63613;28.200;112.870;2023-07-28T09:46:09;3.83;;;2.42;;
41952;SDS011;63613;28.200;112.870;2023-07-28T09:48:39;3.75;;;2.67;;
41952;SDS011;63613;28.200;112.870;2023-07-28T09:51:18;4.13;;;2.22;;
41952;SDS011;63613;28.200;112.870;2023-07-28T09:53:48;3.75;;;2.38;;
41952;SDS011;63613;28.200;112.870;2023-07-28T09:56:22;3.08;;;2.28;;
41952;SDS011;63613;28.200;112.870;2023-07-28T09:59:13;4.03;;;2.13;;
41952;SDS011;63613;28.200;112.870;2023-07-28T10:01:44;3.90;;;2.20;;
41952;SDS011;63613;28.200;112.870;2023-07-28T10:04:13;2.38;;;2.10;;
41952;SDS011;63613;28.200;112.870;2023-07-28T10:07:02;3.22;;;2.70;;
41952;SDS011;63613;28.200;112.870;2023-07-28T10:09:34;3.33;;;1.73;;
41952;SDS011;63613;28.200;112.870;2023-07-28T10:12:24;3.08;;;2.00;;
41952;SDS011;63613;28.200;112.870;2023-07-28T10:15:01;4.25;;;2.53;;
41952;SDS011;63613;28.200;112.870;2023-07-28T10:17:32;4.43;;;2.92;;
41952;SDS011;63613;28.200;112.870;2023-07-28T10:23:05;8.50;;;3.83;;
41952;SDS011;63613;28.200;112.870;2023-07-28T10:25:33;9.45;;;4.15;;
41952;SDS011;63613;28.200;112.870;2023-07-28T10:30:58;11.88;;;5.47;;
41952;SDS011;63613;28.200;112.870;2023-07-28T10:36:14;17.10;;;7.10;;
41952;SDS011;63613;28.200;112.870;2023-07-28T10:38:43;20.08;;;7.97;;
41952;SDS011;63613;28.200;112.870;2023-07-28T10:41:14;22.05;;;8.88;;
41952;SDS011;63613;28.200;112.870;2023-07-28T10:43:44;17.95;;;9.25;;
41952;SDS011;63613;28.200;112.870;2023-07-28T10:46:15;19.92;;;8.55;;
41952;SDS011;63613;28.200;112.870;2023-07-28T10:48:44;19.02;;;9.27;;
41952;SDS011;63613;28.200;112.870;2023-07-28T10:51:24;22.13;;;9.35;;
41952;SDS011;63613;28.200;112.870;2023-07-28T10:54:01;20.80;;;9.40;;
41952;SDS011;63613;28.200;112.870;2023-07-28T10:56:31;18.07;;;9.20;;
41952;SDS011;63613;28.200;112.870;2023-07-28T10:58:58;19.27;;;9.35;;
41952;SDS011;63613;28.200;112.870;2023-07-28T11:01:32;19.92;;;10.27;;
41952;SDS011;63613;28.200;112.870;2023-07-28T11:04:09;20.67;;;9.88;;
41952;SDS011;63613;28.200;112.870;2023-07-28T11:06:40;21.55;;;9.85;;
41952;SDS011;63613;28.200;112.870;2023-07-28T11:09:11;17.73;;;8.90;;
41952;SDS011;63613;28.200;112.870;2023-07-28T11:11:40;21.58;;;10.85;;
41952;SDS011;63613;28.200;112.870;2023-07-28T11:14:08;22.73;;;11.20;;
41952;SDS011;63613;28.200;112.870;2023-07-28T11:16:36;20.15;;;9.30;;
41952;SDS011;63613;28.200;112.870;2023-07-28T11:19:10;18.05;;;8.18;;
41952;SDS011;63613;28.200;112.870;2023-07-28T11:21:43;19.48;;;8.95;;
41952;SDS011;63613;28.200;112.870;2023-07-28T11:24:10;20.17;;;9.55;;
41952;SDS011;63613;28.200;112.870;2023-07-28T11:26:38;21.42;;;9.43;;
41952;SDS011;63613;28.200;112.870;2023-07-28T11:29:05;21.15;;;9.70;;
41952;SDS011;63613;28.200;112.870;2023-07-28T11:31:33;23.45;;;10.05;;
41952;SDS011;63613;28.200;112.870;2023-07-28T11:34:00;22.40;;;9.73;;
41952;SDS011;63613;28.200;112.870;2023-07-28T11:36:31;20.80;;;9.27;;
41952;SDS011;63613;28.200;112.870;2023-07-28T11:38:59;19.85;;;9.10;;
41952;SDS011;63613;28.200;112.870;2023-07-28T11:41:26;20.50;;;9.45;;
41952;SDS011;63613;28.200;112.870;2023-07-28T11:43:53;18.95;;;9.00;;
41952;SDS011;63613;28.200;112.870;2023-07-28T11:46:36;18.77;;;8.52;;
41952;SDS011;63613;28.200;112.870;2023-07-28T11:49:12;20.95;;;9.48;;
41952;SDS011;63613;28.200;112.870;2023-07-28T11:51:43;18.98;;;8.40;;
41952;SDS011;63613;28.200;112.870;2023-07-28T11:54:12;16.38;;;7.80;;
41952;SDS011;63613;28.200;112.870;2023-07-28T11:56:44;13.77;;;6.75;;
41952;SDS011;63613;28.200;112.870;2023-07-28T11:59:14;12.05;;;6.05;;
41952;SDS011;63613;28.200;112.870;2023-07-28T12:04:26;11.32;;;5.28;;
41952;SDS011;63613;28.200;112.870;2023-07-28T12:07:10;8.57;;;4.68;;
41952;SDS011;63613;28.200;112.870;2023-07-28T12:09:54;10.15;;;4.88;;
41952;SDS011;63613;28.200;112.870;2023-07-28T12:12:30;8.65;;;4.97;;
41952;SDS011;63613;28.200;112.870;2023-07-28T12:14:59;10.25;;;4.85;;
41952;SDS011;63613;28.200;112.870;2023-07-28T12:17:30;6.95;;;4.30;;
41952;SDS011;63613;28.200;112.870;2023-07-28T12:20:06;7.45;;;4.57;;
41952;SDS011;63613;28.200;112.870;2023-07-28T12:22:37;10.75;;;5.35;;
41952;SDS011;63613;28.200;112.870;2023-07-28T12:25:05;6.10;;;4.60;;
41952;SDS011;63613;28.200;112.870;2023-07-28T12:27:34;9.23;;;4.78;;
41952;SDS011;63613;28.200;112.870;2023-07-28T12:30:01;6.40;;;4.47;;
41952;SDS011;63613;28.200;112.870;2023-07-28T12:32:29;6.10;;;4.30;;
41952;SDS011;63613;28.200;112.870;2023-07-28T12:34:57;6.78;;;4.35;;
41952;SDS011;63613;28.200;112.870;2023-07-28T12:37:24;7.47;;;4.20;;
41952;SDS011;63613;28.200;112.870;2023-07-28T12:39:51;7.30;;;4.47;;
41952;SDS011;63613;28.200;112.870;2023-07-28T12:42:18;6.28;;;4.55;;
41952;SDS011;63613;28.200;112.870;2023-07-28T12:44:45;7.18;;;4.38;;
41952;SDS011;63613;28.200;112.870;2023-07-28T12:47:12;9.00;;;4.45;;
41952;SDS011;63613;28.200;112.870;2023-07-28T12:49:50;7.07;;;4.80;;
41952;SDS011;63613;28.200;112.870;2023-07-28T12:52:17;8.63;;;4.55;;
41952;SDS011;63613;28.200;112.870;2023-07-28T12:54:44;10.80;;;5.28;;
41952;SDS011;63613;28.200;112.870;2023-07-28T12:57:10;9.95;;;5.13;;
41952;SDS011;63613;28.200;112.870;2023-07-28T12:59:38;6.63;;;4.38;;
41952;SDS011;63613;28.200;112.870;2023-07-28T13:02:05;7.57;;;4.38;;
41952;SDS011;63613;28.200;112.870;2023-07-28T13:04:32;6.47;;;4.97;;
41952;SDS011;63613;28.200;112.870;2023-07-28T13:06:59;6.40;;;4.68;;
41952;SDS011;63613;28.200;112.870;2023-07-28T13:09:26;6.63;;;4.63;;
41952;SDS011;63613;28.200;112.870;2023-07-28T13:12:12;6.80;;;4.50;;
41952;SDS011;63613;28.200;112.870;2023-07-28T13:14:39;6.60;;;4.18;;
41952;SDS011;63613;28.200;112.870;2023-07-28T13:17:06;6.68;;;4.32;;
41952;SDS011;63613;28.200;112.870;2023-07-28T13:19:33;9.20;;;4.72;;
41952;SDS011;63613;28.200;112.870;2023-07-28T13:22:00;6.32;;;4.68;;
41952;SDS011;63613;28.200;112.870;2023-07-28T13:24:27;6.25;;;4.57;;
41952;SDS011;63613;28.200;112.870;2023-07-28T13:26:55;7.50;;;4.43;;
41952;SDS011;63613;28.200;112.870;2023-07-28T13:29:24;6.80;;;3.90;;
41952;SDS011;63613;28.200;112.870;2023-07-28T13:31:51;6.95;;;4.03;;
41952;SDS011;63613;28.200;112.870;2023-07-28T13:34:23;7.93;;;4.43;;
41952;SDS011;63613;28.200;112.870;2023-07-28T13:36:50;6.72;;;4.65;;
41952;SDS011;63613;28.200;112.870;2023-07-28T13:39:17;6.78;;;4.40;;
41952;SDS011;63613;28.200;112.870;2023-07-28T13:41:48;6.63;;;4.00;;
41952;SDS011;63613;28.200;112.870;2023-07-28T13:44:16;6.10;;;4.43;;
41952;SDS011;63613;28.200;112.870;2023-07-28T13:46:48;7.57;;;4.13;;
41952;SDS011;63613;28.200;112.870;2023-07-28T13:49:15;7.47;;;4.65;;
41952;SDS011;63613;28.200;112.870;2023-07-28T13:51:42;8.18;;;4.30;;
41952;SDS011;63613;28.200;112.870;2023-07-28T13:54:10;5.45;;;3.80;;
41952;SDS011;63613;28.200;112.870;2023-07-28T13:56:37;8.73;;;4.10;;
41952;SDS011;63613;28.200;112.870;2023-07-28T13:59:04;7.88;;;4.10;;
41952;SDS011;63613;28.200;112.870;2023-07-28T14:01:31;5.90;;;3.65;;
41952;SDS011;63613;28.200;112.870;2023-07-28T14:03:57;4.32;;;2.88;;
41952;SDS011;63613;28.200;112.870;2023-07-28T14:06:29;4.53;;;3.13;;
41952;SDS011;63613;28.200;112.870;2023-07-28T14:08:55;4.10;;;2.67;;
41952;SDS011;63613;28.200;112.870;2023-07-28T14:11:22;4.20;;;3.20;;
41952;SDS011;63613;28.200;112.870;2023-07-28T14:13:49;5.03;;;3.55;;
41952;SDS011;63613;28.200;112.870;2023-07-28T14:16:16;4.05;;;3.50;;
41952;SDS011;63613;28.200;112.870;2023-07-28T14:18:43;5.15;;;3.67;;
41952;SDS011;63613;28.200;112.870;2023-07-28T14:21:15;5.20;;;3.25;;
41952;SDS011;63613;28.200;112.870;2023-07-28T14:23:42;4.15;;;3.00;;
41952;SDS011;63613;28.200;112.870;2023-07-28T14:26:10;3.78;;;3.08;;
41952;SDS011;63613;28.200;112.870;2023-07-28T14:28:37;5.07;;;3.45;;
41952;SDS011;63613;28.200;112.870;2023-07-28T14:31:10;5.28;;;3.35;;
41952;SDS011;63613;28.200;112.870;2023-07-28T14:33:37;4.05;;;3.08;;
41952;SDS011;63613;28.200;112.870;2023-07-28T14:36:03;5.30;;;3.10;;
41952;SDS011;63613;28.200;112.870;2023-07-28T14:38:34;5.20;;;3.17;;
41952;SDS011;63613;28.200;112.870;2023-07-28T14:41:01;5.13;;;3.42;;
41952;SDS011;63613;28.200;112.870;2023-07-28T14:43:27;5.70;;;3.65;;
41952;SDS011;63613;28.200;112.870;2023-07-28T14:45:55;5.05;;;3.40;;
41952;SDS011;63613;28.200;112.870;2023-07-28T14:48:22;3.90;;;3.38;;
41952;SDS011;63613;28.200;112.870;2023-07-28T14:50:49;5.18;;;3.13;;